Time,TemperatureF,DewpointF,PressureIn,WindDirection,WindDirectionDegrees,WindSpeedMPH,WindSpeedGustMPH,Humidity,HourlyPrecipIn,Conditions,Clouds,dailyrainin,SoftwareType,DateUTC
2013-01-22 00:00:00,20.8,17.3,29.55,South,174,0.0,0.0,86,0.00,CLR,,0.00,WeatherDisplay:10.37,2013-01-22 05:00:00,
2013-01-22 00:01:00,20.8,17.3,29.55,South,174,0.0,0.0,86,0.00,CLR,,0.00,WeatherDisplay:10.37,2013-01-22 05:01:00,
2013-01-22 00:07:00,20.8,17.3,29.55,South,174,0.0,0.0,86,0.00,CLR,,0.00,WeatherDisplay:10.37,2013-01-22 05:07:00,
2013-01-22 00:12:00,20.8,17.3,29.55,South,174,0.0,0.0,86,0.00,CLR,,0.00,WeatherDisplay:10.37,2013-01-22 05:12:00,
2013-01-22 00:17:00,21.0,17.5,29.54,South,174,0.0,0.0,86,0.00,CLR,,0.00,WeatherDisplay:10.37,2013-01-22 05:17:00,
2013-01-22 00:22:00,21.0,17.5,29.54,South,174,0.0,0.0,86,0.00,CLR,,0.00,WeatherDisplay:10.37,2013-01-22 05:22:00,
2013-01-22 00:27:00,21.0,17.5,29.53,South,176,0.0,0.0,86,0.00,CLR,,0.00,WeatherDisplay:10.37,2013-01-22 05:27:00,
2013-01-22 00:32:00,21.0,17.5,29.53,South,178,0.0,0.0,86,0.00,CLR,,0.00,WeatherDisplay:10.37,2013-01-22 05:32:00,
2013-01-22 00:37:00,21.0,17.5,29.51,North,354,0.0,0.0,86,0.00,CLR,,0.00,WeatherDisplay:10.37,2013-01-22 05:37:00,
2013-01-22 00:42:00,21.1,17.6,29.52,North,354,0.0,0.0,86,0.00,CLR,,0.00,WeatherDisplay:10.37,2013-01-22 05:42:00,
2013-01-22 00:47:00,21.1,17.8,29.53,North,354,0.0,0.0,87,0.00,CLR,,0.00,WeatherDisplay:10.37,2013-01-22 05:47:00,
2013-01-22 00:52:00,21.1,17.8,29.53,North,354,0.0,0.0,87,0.00,CLR,,0.00,WeatherDisplay:10.37,2013-01-22 05:52:00,
2013-01-22 00:57:00,21.1,17.8,29.53,North,354,0.0,0.0,87,0.00,CLR,,0.00,WeatherDisplay:10.37,2013-01-22 05:57:00,
2013-01-22 01:02:00,21.1,17.8,29.52,North,354,0.0,0.0,87,0.00,CLR,,0.00,WeatherDisplay:10.37,2013-01-22 06:02:00,
2013-01-22 01:07:00,21.1,18.1,29.52,North,354,0.0,1.1,88,0.00,CLR,,0.00,WeatherDisplay:10.37,2013-01-22 06:07:00,
2013-01-22 01:12:00,21.1,18.1,29.52,North,354,0.0,0.0,88,0.00,CLR,,0.00,WeatherDisplay:10.37,2013-01-22 06:12:00,
2013-01-22 01:17:00,21.1,18.1,29.52,North,354,0.0,0.0,88,0.00,CLR,,0.00,WeatherDisplay:10.37,2013-01-22 06:17:00,
2013-01-22 01:22:00,21.1,18.1,29.52,North,354,0.0,0.0,88,0.00,CLR,,0.00,WeatherDisplay:10.37,2013-01-22 06:22:00,
2013-01-22 01:27:00,21.1,18.1,29.54,North,353,0.0,0.0,88,0.00,CLR,,0.00,WeatherDisplay:10.37,2013-01-22 06:27:00,
2013-01-22 01:32:00,21.1,18.1,29.53,North,353,0.0,0.0,88,0.00,CLR,,0.00,WeatherDisplay:10.37,2013-01-22 06:32:00,
2013-01-22 01:37:00,21.1,18.1,29.54,SW,222,0.0,0.0,88,0.00,CLR,,0.00,WeatherDisplay:10.37,2013-01-22 06:37:00,
2013-01-22 01:42:00,21.0,18.0,29.53,SW,222,0.0,0.0,88,0.00,CLR,,0.00,WeatherDisplay:10.37,2013-01-22 06:42:00,
2013-01-22 01:47:00,21.0,18.0,29.53,SW,222,0.0,0.0,88,0.00,CLR,,0.00,WeatherDisplay:10.37,2013-01-22 06:47:00,
2013-01-22 01:52:00,21.0,17.7,29.52,SW,222,0.0,0.0,87,0.00,CLR,,0.00,WeatherDisplay:10.37,2013-01-22 06:52:00,
2013-01-22 01:57:00,20.8,17.5,29.52,SW,222,0.0,0.0,87,0.00,CLR,,0.00,WeatherDisplay:10.37,2013-01-22 06:57:00,
2013-01-22 02:02:00,20.6,17.3,29.52,SW,222,0.0,0.0,87,0.00,CLR,,0.00,WeatherDisplay:10.37,2013-01-22 07:02:00,
2013-01-22 02:07:00,20.5,17.2,29.52,SW,222,0.0,0.0,87,0.00,CLR,,0.00,WeatherDisplay:10.37,2013-01-22 07:07:00,
2013-01-22 02:12:00,20.3,17.0,29.52,SW,222,0.0,0.0,87,0.00,CLR,,0.00,WeatherDisplay:10.37,2013-01-22 07:12:00,
2013-01-22 02:17:00,20.0,16.8,29.52,SW,222,0.0,0.0,87,0.00,CLR,,0.00,WeatherDisplay:10.37,2013-01-22 07:17:00,
2013-01-22 02:22:00,19.9,16.7,29.52,SW,222,0.0,0.0,87,0.00,CLR,,0.00,WeatherDisplay:10.37,2013-01-22 07:22:00,
2013-01-22 02:27:00,19.7,16.2,29.52,SW,222,0.0,0.0,86,0.00,CLR,,0.00,WeatherDisplay:10.37,2013-01-22 07:27:00,
2013-01-22 02:32:00,19.4,15.9,29.52,SW,222,0.0,0.0,86,0.00,CLR,,0.00,WeatherDisplay:10.37,2013-01-22 07:32:00,
2013-01-22 02:37:00,19.1,15.6,29.52,SW,222,0.0,0.0,86,0.00,CLR,,0.00,WeatherDisplay:10.37,2013-01-22 07:37:00,
2013-01-22 02:42:00,18.9,15.4,29.52,SW,222,0.0,0.0,86,0.00,CLR,,0.00,WeatherDisplay:10.37,2013-01-22 07:42:00,
2013-01-22 02:47:00,18.6,15.1,29.52,SW,222,0.0,0.0,86,0.00,CLR,,0.00,WeatherDisplay:10.37,2013-01-22 07:47:00,
2013-01-22 02:52:00,18.3,14.5,29.52,SW,222,0.0,0.0,85,0.00,CLR,,0.00,WeatherDisplay:10.37,2013-01-22 07:52:00,
2013-01-22 02:57:00,18.0,14.3,29.52,SW,222,0.0,0.0,85,0.00,CLR,,0.00,WeatherDisplay:10.37,2013-01-22 07:57:00,
2013-01-22 03:02:00,17.7,14.0,29.51,SW,222,0.0,0.0,85,0.00,CLR,,0.00,WeatherDisplay:10.37,2013-01-22 08:02:00,
2013-01-22 03:07:00,17.5,13.8,29.51,SW,222,0.0,0.0,85,0.00,CLR,,0.00,WeatherDisplay:10.37,2013-01-22 08:07:00,
2013-01-22 03:12:00,17.2,13.5,29.51,SW,222,0.0,0.0,85,0.00,CLR,,0.00,WeatherDisplay:10.37,2013-01-22 08:12:00,
2013-01-22 03:17:00,16.9,13.2,29.51,SW,222,0.0,0.0,85,0.00,CLR,,0.00,WeatherDisplay:10.37,2013-01-22 08:17:00,
2013-01-22 03:22:00,16.7,13.0,29.51,SW,222,0.0,0.0,85,0.00,CLR,,0.00,WeatherDisplay:10.37,2013-01-22 08:22:00,
2013-01-22 03:27:00,16.5,12.8,29.51,SW,222,0.0,0.0,85,0.00,CLR,,0.00,WeatherDisplay:10.37,2013-01-22 08:27:00,
2013-01-22 03:32:00,16.4,12.7,29.51,SW,222,0.0,0.0,85,0.00,CLR,,0.00,WeatherDisplay:10.37,2013-01-22 08:32:00,
2013-01-22 03:37:00,16.2,12.5,29.51,SW,222,0.0,0.0,85,0.00,CLR,,0.00,WeatherDisplay:10.37,2013-01-22 08:37:00,
2013-01-22 03:42:00,16.1,12.4,29.51,SW,222,0.0,0.0,85,0.00,CLR,,0.00,WeatherDisplay:10.37,2013-01-22 08:42:00,
2013-01-22 03:47:00,15.9,12.2,29.51,SW,222,0.0,0.0,85,0.00,CLR,,0.00,WeatherDisplay:10.37,2013-01-22 08:47:00,
2013-01-22 03:52:00,15.7,12.0,29.51,SW,222,0.0,0.0,85,0.00,CLR,,0.00,WeatherDisplay:10.37,2013-01-22 08:52:00,
2013-01-22 03:57:00,15.7,12.0,29.51,SW,222,0.0,0.0,85,0.00,CLR,,0.00,WeatherDisplay:10.37,2013-01-22 08:57:00,
2013-01-22 04:02:00,15.6,11.9,29.51,SW,222,0.0,0.0,85,0.00,CLR,,0.00,WeatherDisplay:10.37,2013-01-22 09:02:00,
2013-01-22 04:07:00,15.6,11.9,29.51,SW,222,0.0,0.0,85,0.00,CLR,,0.00,WeatherDisplay:10.37,2013-01-22 09:07:00,
2013-01-22 04:12:00,15.6,11.9,29.51,SW,222,0.0,0.0,85,0.00,CLR,,0.00,WeatherDisplay:10.37,2013-01-22 09:12:00,
2013-01-22 04:17:00,15.4,11.7,29.51,SW,222,0.0,0.0,85,0.00,CLR,,0.00,WeatherDisplay:10.37,2013-01-22 09:17:00,
2013-01-22 04:22:00,15.6,11.9,29.51,SW,222,0.0,0.0,85,0.00,CLR,,0.00,WeatherDisplay:10.37,2013-01-22 09:22:00,
2013-01-22 04:27:00,15.6,11.9,29.51,SW,222,0.0,0.0,85,0.00,CLR,,0.00,WeatherDisplay:10.37,2013-01-22 09:27:00,
2013-01-22 04:32:00,15.4,11.7,29.51,SW,222,0.0,0.0,85,0.00,CLR,,0.00,WeatherDisplay:10.37,2013-01-22 09:32:00,
2013-01-22 04:37:00,15.4,11.7,29.51,SW,224,0.0,0.0,85,0.00,CLR,,0.00,WeatherDisplay:10.37,2013-01-22 09:37:00,
2013-01-22 04:42:00,15.4,11.7,29.51,SW,224,0.0,0.0,85,0.00,CLR,,0.00,WeatherDisplay:10.37,2013-01-22 09:42:00,
2013-01-22 04:47:00,15.4,11.7,29.51,SW,224,0.0,0.0,85,0.00,CLR,,0.00,WeatherDisplay:10.37,2013-01-22 09:47:00,
2013-01-22 04:52:00,15.6,11.9,29.51,SW,224,0.0,0.0,85,0.00,CLR,,0.00,WeatherDisplay:10.37,2013-01-22 09:52:00,
2013-01-22 04:57:00,15.6,12.2,29.51,SW,224,0.0,0.0,86,0.00,CLR,,0.00,WeatherDisplay:10.37,2013-01-22 09:57:00,
2013-01-22 05:02:00,15.6,12.2,29.51,SW,224,0.0,0.0,86,0.00,CLR,,0.00,WeatherDisplay:10.37,2013-01-22 10:02:00,
2013-01-22 05:07:00,15.7,12.3,29.51,SW,224,0.0,0.0,86,0.00,CLR,,0.00,WeatherDisplay:10.37,2013-01-22 10:07:00,
2013-01-22 05:12:00,15.7,12.3,29.52,SW,224,0.0,0.0,86,0.00,CLR,,0.00,WeatherDisplay:10.37,2013-01-22 10:12:00,
2013-01-22 05:17:00,15.9,12.5,29.52,SW,224,0.0,0.0,86,0.00,CLR,,0.00,WeatherDisplay:10.37,2013-01-22 10:17:00,
2013-01-22 05:22:00,15.9,12.5,29.52,SW,224,0.0,0.0,86,0.00,CLR,,0.00,WeatherDisplay:10.37,2013-01-22 10:22:00,
2013-01-22 05:27:00,15.9,12.5,29.52,SW,224,0.0,0.0,86,0.00,CLR,,0.00,WeatherDisplay:10.37,2013-01-22 10:27:00,
2013-01-22 05:32:00,16.1,12.7,29.52,SW,224,0.0,0.0,86,0.00,CLR,,0.00,WeatherDisplay:10.37,2013-01-22 10:32:00,
2013-01-22 05:37:00,16.1,12.7,29.52,SW,224,0.0,0.0,86,0.00,CLR,,0.00,WeatherDisplay:10.37,2013-01-22 10:37:00,
2013-01-22 05:42:00,16.1,12.7,29.53,SW,226,0.0,0.0,86,0.00,CLR,,0.00,WeatherDisplay:10.37,2013-01-22 10:42:00,
2013-01-22 05:47:00,16.1,12.7,29.53,NW,319,0.0,0.0,86,0.00,CLR,,0.00,WeatherDisplay:10.37,2013-01-22 10:47:00,
2013-01-22 05:52:00,16.1,12.7,29.53,NW,311,0.0,0.0,86,0.00,CLR,,0.00,WeatherDisplay:10.37,2013-01-22 10:52:00,
2013-01-22 05:57:00,16.1,12.7,29.53,NW,309,0.0,0.0,86,0.00,CLR,,0.00,WeatherDisplay:10.37,2013-01-22 10:57:00,
2013-01-22 06:02:00,16.1,12.7,29.53,NW,309,0.0,0.0,86,0.00,CLR,,0.00,WeatherDisplay:10.37,2013-01-22 11:02:00,
2013-01-22 06:07:00,16.1,12.7,29.54,NW,308,0.0,2.3,86,0.00,CLR,,0.00,WeatherDisplay:10.37,2013-01-22 11:07:00,
2013-01-22 06:13:00,16.1,12.7,29.54,North,4,0.0,0.0,86,0.00,CLR,,0.00,WeatherDisplay:10.37,2013-01-22 11:13:00,
2013-01-22 06:18:00,16.2,12.7,29.54,NNW,337,0.0,0.0,86,0.00,CLR,,0.00,WeatherDisplay:10.37,2013-01-22 11:18:00,
2013-01-22 06:23:00,16.2,12.7,29.54,North,349,0.0,0.0,86,0.00,CLR,,0.00,WeatherDisplay:10.37,2013-01-22 11:23:00,
2013-01-22 06:28:00,16.4,13.2,29.55,NNW,346,0.0,2.3,87,0.00,CLR,,0.00,WeatherDisplay:10.37,2013-01-22 11:28:00,
2013-01-22 06:33:00,16.7,13.5,29.55,WSW,240,1.4,2.3,87,0.00,CLR,,0.00,WeatherDisplay:10.37,2013-01-22 11:33:00,
2013-01-22 06:38:00,17.0,13.8,29.55,North,357,2.5,6.9,87,0.00,CLR,,0.00,WeatherDisplay:10.37,2013-01-22 11:38:00,
2013-01-22 06:43:00,17.2,13.7,29.55,NNW,332,0.0,0.0,86,0.00,CLR,,0.00,WeatherDisplay:10.37,2013-01-22 11:43:00,
2013-01-22 06:48:00,17.3,13.8,29.55,WNW,302,0.8,3.5,86,0.00,CLR,,0.00,WeatherDisplay:10.37,2013-01-22 11:48:00,
2013-01-22 06:53:00,17.3,13.6,29.55,NW,304,1.4,4.6,85,0.00,CLR,,0.00,WeatherDisplay:10.37,2013-01-22 11:53:00,
2013-01-22 06:58:00,17.3,13.3,29.56,West,280,0.1,2.3,84,0.00,CLR,,0.00,WeatherDisplay:10.37,2013-01-22 11:58:00,
2013-01-22 07:03:00,17.2,13.2,29.56,NNW,330,0.0,0.0,84,0.00,CLR,,0.00,WeatherDisplay:10.37,2013-01-22 12:03:00,
2013-01-22 07:08:00,17.2,12.9,29.56,WNW,298,1.6,5.8,83,0.00,CLR,,0.00,WeatherDisplay:10.37,2013-01-22 12:08:00,
2013-01-22 07:13:00,17.0,12.7,29.56,North,356,0.0,0.0,83,0.00,CLR,,0.00,WeatherDisplay:10.37,2013-01-22 12:13:00,
2013-01-22 07:18:00,16.9,12.4,29.56,North,356,1.1,5.8,82,0.00,CLR,,0.00,WeatherDisplay:10.37,2013-01-22 12:18:00,
2013-01-22 07:23:00,16.7,11.9,29.57,West,272,2.7,6.9,81,0.00,CLR,,0.00,WeatherDisplay:10.37,2013-01-22 12:23:00,
2013-01-22 07:28:00,16.7,11.9,29.57,WNW,282,0.4,5.0,81,0.00,CLR,,0.00,WeatherDisplay:10.37,2013-01-22 12:28:00,
2013-01-22 07:33:00,16.5,11.4,29.57,WNW,288,1.2,6.9,80,0.00,CLR,,0.00,WeatherDisplay:10.37,2013-01-22 12:33:00,
2013-01-22 07:38:00,16.4,11.3,29.57,NW,306,2.0,5.8,80,0.00,CLR,,0.00,WeatherDisplay:10.37,2013-01-22 12:38:00,
2013-01-22 07:43:00,16.4,11.3,29.57,NNW,343,0.0,0.0,80,0.00,CLR,,0.00,WeatherDisplay:10.37,2013-01-22 12:43:00,
2013-01-22 07:48:00,16.4,11.0,29.58,NW,322,1.1,3.5,79,0.00,CLR,,0.00,WeatherDisplay:10.37,2013-01-22 12:48:00,
2013-01-22 07:53:00,16.4,10.7,29.58,North,359,0.7,4.6,78,0.00,CLR,,0.00,WeatherDisplay:10.37,2013-01-22 12:53:00,
2013-01-22 07:58:00,16.4,10.7,29.58,NNW,343,1.3,5.8,78,0.00,CLR,,0.00,WeatherDisplay:10.37,2013-01-22 12:58:00,
2013-01-22 08:03:00,16.5,10.5,29.58,NNW,339,0.9,3.5,77,0.00,CLR,,0.00,WeatherDisplay:10.37,2013-01-22 13:03:00,
2013-01-22 08:08:00,16.5,10.5,29.58,WNW,285,0.4,3.5,77,0.00,CLR,,0.00,WeatherDisplay:10.37,2013-01-22 13:08:00,
2013-01-22 08:13:00,16.5,10.5,29.58,WNW,291,2.3,4.6,77,0.00,CLR,,0.00,WeatherDisplay:10.37,2013-01-22 13:13:00,
2013-01-22 08:18:00,16.7,10.4,29.59,NNW,328,0.5,5.0,76,0.00,CLR,,0.00,WeatherDisplay:10.37,2013-01-22 13:18:00,
2013-01-22 08:23:00,16.9,10.6,29.59,NW,325,0.4,4.6,76,0.00,CLR,,0.00,WeatherDisplay:10.37,2013-01-22 13:23:00,
2013-01-22 08:28:00,17.2,10.9,29.59,NNW,329,1.8,6.9,76,0.00,CLR,,0.00,WeatherDisplay:10.37,2013-01-22 13:28:00,
2013-01-22 08:33:00,17.3,10.7,29.59,WNW,298,1.3,4.6,75,0.00,CLR,,0.00,WeatherDisplay:10.37,2013-01-22 13:33:00,
2013-01-22 08:38:00,17.5,10.6,29.59,North,352,8.8,10.4,74,0.00,CLR,,0.00,WeatherDisplay:10.37,2013-01-22 13:38:00,
2013-01-22 08:43:00,17.8,10.3,29.60,NW,316,4.5,10.4,72,0.00,CLR,,0.00,WeatherDisplay:10.37,2013-01-22 13:43:00,
2013-01-22 08:48:00,20.5,12.9,29.60,NW,326,1.1,4.6,72,0.00,CLR,,0.00,WeatherDisplay:10.37,2013-01-22 13:48:00,
2013-01-22 08:53:00,21.3,10.3,29.60,NW,315,1.6,4.6,62,0.00,CLR,,0.00,WeatherDisplay:10.37,2013-01-22 13:53:00,
2013-01-22 08:58:00,20.8,10.2,29.60,North,359,2.4,5.8,63,0.00,CLR,,0.00,WeatherDisplay:10.37,2013-01-22 13:58:00,
2013-01-22 09:03:00,20.5,9.5,29.60,WNW,282,0.6,4.6,62,0.00,CLR,,0.00,WeatherDisplay:10.37,2013-01-22 14:03:00,
2013-01-22 09:08:00,20.6,10.0,29.60,North,353,3.9,6.9,63,0.00,CLR,,0.00,WeatherDisplay:10.37,2013-01-22 14:08:00,
2013-01-22 09:13:00,20.2,8.9,29.60,NW,315,5.1,8.1,61,0.00,CLR,,0.00,WeatherDisplay:10.37,2013-01-22 14:13:00,
2013-01-22 09:18:00,20.2,9.6,29.61,SW,234,0.3,0.0,63,0.00,CLR,,0.00,WeatherDisplay:10.37,2013-01-22 14:18:00,
2013-01-22 09:23:00,20.0,9.4,29.61,NNW,329,4.6,10.4,63,0.00,CLR,,0.00,WeatherDisplay:10.37,2013-01-22 14:23:00,
2013-01-22 09:28:00,20.2,8.5,29.61,West,281,0.6,2.3,60,0.00,CLR,,0.00,WeatherDisplay:10.37,2013-01-22 14:28:00,
2013-01-22 09:33:00,20.5,9.5,29.61,WSW,243,1.2,4.0,62,0.00,CLR,,0.00,WeatherDisplay:10.37,2013-01-22 14:33:00,
2013-01-22 09:38:00,20.8,9.5,29.61,WNW,302,0.9,2.0,61,0.00,CLR,,0.00,WeatherDisplay:10.37,2013-01-22 14:38:00,
2013-01-22 09:43:00,21.1,9.0,29.61,North,359,6.9,9.2,59,0.00,CLR,,0.00,WeatherDisplay:10.37,2013-01-22 14:43:00,
2013-01-22 09:48:00,21.4,8.9,29.61,NW,313,3.0,6.9,58,0.00,CLR,,0.00,WeatherDisplay:10.37,2013-01-22 14:48:00,
2013-01-22 09:53:00,21.8,8.9,29.61,NNW,342,1.7,4.6,57,0.00,CLR,,0.00,WeatherDisplay:10.37,2013-01-22 14:53:00,
2013-01-22 09:58:00,21.9,8.6,29.62,WNW,289,4.0,8.1,56,0.00,CLR,,0.00,WeatherDisplay:10.37,2013-01-22 14:58:00,
2013-01-22 10:03:00,22.1,9.2,29.62,NW,309,6.5,17.3,57,0.00,CLR,,0.00,WeatherDisplay:10.37,2013-01-22 15:03:00,
2013-01-22 10:08:00,22.1,8.0,29.62,WNW,282,4.1,10.4,54,0.00,CLR,,0.00,WeatherDisplay:10.37,2013-01-22 15:08:00,
2013-01-22 10:13:00,21.9,8.2,29.62,West,271,1.7,6.9,55,0.00,CLR,,0.00,WeatherDisplay:10.37,2013-01-22 15:13:00,
2013-01-22 10:18:00,22.2,8.5,29.62,NW,325,3.7,10.4,55,0.00,CLR,,0.00,WeatherDisplay:10.37,2013-01-22 15:18:00,
2013-01-22 10:23:00,22.2,8.5,29.62,West,271,4.6,10.4,55,0.00,CLR,,0.00,WeatherDisplay:10.37,2013-01-22 15:23:00,
2013-01-22 10:28:00,22.2,9.3,29.63,WSW,241,3.4,10.4,57,0.00,CLR,,0.00,WeatherDisplay:10.37,2013-01-22 15:28:00,
2013-01-22 10:33:00,21.6,7.5,29.63,NNW,344,7.8,12.7,54,0.00,CLR,,0.00,WeatherDisplay:10.37,2013-01-22 15:33:00,
2013-01-22 10:38:00,21.0,6.9,29.63,NW,311,1.5,8.0,54,0.00,CLR,,0.00,WeatherDisplay:10.37,2013-01-22 15:38:00,
2013-01-22 10:43:00,21.6,8.7,29.63,West,274,0.8,3.5,57,0.00,CLR,,0.00,WeatherDisplay:10.37,2013-01-22 15:43:00,
2013-01-22 10:48:00,21.9,8.2,29.63,WNW,292,4.4,8.1,55,0.00,CLR,,0.00,WeatherDisplay:10.37,2013-01-22 15:48:00,
2013-01-22 10:53:00,21.9,8.2,29.63,West,265,3.0,6.9,55,0.01,RA,,0.01,WeatherDisplay:10.37,2013-01-22 15:53:00,
2013-01-22 10:58:00,21.4,6.5,29.62,WSW,244,2.7,5.8,52,0.01,RA,,0.01,WeatherDisplay:10.37,2013-01-22 15:58:00,
2013-01-22 11:03:00,20.8,7.2,29.62,WNW,288,3.1,5.8,55,0.01,CLR,,0.01,WeatherDisplay:10.37,2013-01-22 16:03:00,
2013-01-22 11:08:00,20.6,7.0,29.62,WNW,295,0.2,3.5,55,0.01,CLR,,0.01,WeatherDisplay:10.37,2013-01-22 16:08:00,
2013-01-22 11:13:00,20.8,6.3,29.61,NW,316,2.9,6.9,53,0.01,CLR,,0.01,WeatherDisplay:10.37,2013-01-22 16:13:00,
2013-01-22 11:18:00,20.6,6.2,29.62,North,359,5.5,10.4,53,0.01,CLR,,0.01,WeatherDisplay:10.37,2013-01-22 16:18:00,
2013-01-22 11:23:00,20.8,5.5,29.61,NW,316,3.2,9.2,51,0.01,CLR,,0.01,WeatherDisplay:10.37,2013-01-22 16:23:00,
2013-01-22 11:28:00,21.4,6.0,29.61,SSW,203,5.3,6.9,51,0.01,CLR,,0.01,WeatherDisplay:10.37,2013-01-22 16:28:00,
2013-01-22 11:33:00,22.1,6.3,29.61,WSW,257,3.7,7.0,50,0.01,CLR,,0.01,WeatherDisplay:10.37,2013-01-22 16:33:00,
2013-01-22 11:38:00,22.4,7.0,29.61,SSW,213,3.8,10.4,51,0.01,CLR,,0.01,WeatherDisplay:10.37,2013-01-22 16:38:00,
2013-01-22 11:43:00,22.2,5.9,29.61,NW,326,1.2,10.4,49,0.01,CLR,,0.01,WeatherDisplay:10.37,2013-01-22 16:43:00,
2013-01-22 11:48:00,21.9,5.2,29.61,WNW,285,2.5,4.6,48,0.01,CLR,,0.01,WeatherDisplay:10.37,2013-01-22 16:48:00,
2013-01-22 11:53:00,21.6,4.9,29.61,NW,320,7.7,10.4,48,0.00,CLR,,0.01,WeatherDisplay:10.37,2013-01-22 16:53:00,
2013-01-22 11:58:00,21.0,3.0,29.61,NW,311,5.8,8.0,45,0.00,CLR,,0.01,WeatherDisplay:10.37,2013-01-22 16:58:00,
2013-01-22 12:03:00,20.6,3.5,29.61,NNW,336,3.3,13.8,47,0.00,CLR,,0.01,WeatherDisplay:10.37,2013-01-22 17:03:00,
2013-01-22 12:08:00,20.3,2.8,29.61,West,275,9.4,13.8,46,0.00,CLR,,0.01,WeatherDisplay:10.37,2013-01-22 17:08:00,
2013-01-22 12:13:00,20.0,2.0,29.61,NNE,14,7.2,11.5,45,0.00,CLR,,0.01,WeatherDisplay:10.37,2013-01-22 17:13:00,
2013-01-22 12:18:00,20.0,3.0,29.61,West,260,3.6,10.4,47,0.00,CLR,,0.01,WeatherDisplay:10.37,2013-01-22 17:18:00,
2013-01-22 12:23:00,20.2,2.7,29.60,WSW,243,5.2,12.7,46,0.00,CLR,,0.01,WeatherDisplay:10.37,2013-01-22 17:23:00,
2013-01-22 12:28:00,20.3,3.7,29.60,North,359,3.5,6.9,48,0.00,CLR,,0.01,WeatherDisplay:10.37,2013-01-22 17:28:00,
2013-01-22 12:33:00,20.5,3.4,29.61,WNW,291,3.8,10.4,47,0.00,CLR,,0.01,WeatherDisplay:10.37,2013-01-22 17:33:00,
2013-01-22 12:38:00,20.6,3.5,29.60,NW,309,1.3,8.1,47,0.00,CLR,,0.01,WeatherDisplay:10.37,2013-01-22 17:38:00,
2013-01-22 12:43:00,20.8,5.1,29.60,NNE,23,2.7,6.9,50,0.00,CLR,,0.01,WeatherDisplay:10.37,2013-01-22 17:43:00,
2013-01-22 12:48:00,21.0,4.4,29.60,NW,305,6.7,11.5,48,0.00,CLR,,0.01,WeatherDisplay:10.37,2013-01-22 17:48:00,
2013-01-22 12:53:00,21.0,3.9,29.60,NNW,333,1.3,10.4,47,0.00,CLR,,0.01,WeatherDisplay:10.37,2013-01-22 17:53:00,
2013-01-22 12:58:00,20.8,4.2,29.61,North,353,6.2,10.0,48,0.00,CLR,,0.01,WeatherDisplay:10.37,2013-01-22 17:58:00,
2013-01-22 13:03:00,20.5,3.0,29.61,North,356,2.8,6.9,46,0.00,CLR,,0.01,WeatherDisplay:10.37,2013-01-22 18:03:00,
2013-01-22 13:08:00,20.2,2.7,29.61,North,349,6.8,16.1,46,0.00,CLR,,0.01,WeatherDisplay:10.37,2013-01-22 18:08:00,
2013-01-22 13:13:00,19.7,1.8,29.61,North,359,8.8,17.0,45,0.00,CLR,,0.01,WeatherDisplay:10.37,2013-01-22 18:13:00,
2013-01-22 13:18:00,19.4,1.0,29.61,NW,318,8.1,13.8,44,0.00,CLR,,0.01,WeatherDisplay:10.37,2013-01-22 18:18:00,
2013-01-22 13:23:00,19.2,1.3,29.61,NNW,344,0.5,5.8,45,0.00,CLR,,0.01,WeatherDisplay:10.37,2013-01-22 18:23:00,
2013-01-22 13:28:00,19.4,1.5,29.61,NW,319,1.2,11.5,45,0.00,CLR,,0.01,WeatherDisplay:10.37,2013-01-22 18:28:00,
2013-01-22 13:33:00,19.5,0.6,29.61,West,272,3.6,10.4,43,0.00,CLR,,0.01,WeatherDisplay:10.37,2013-01-22 18:33:00,
2013-01-22 13:38:00,19.9,1.9,29.61,North,354,5.4,6.9,45,0.00,CLR,,0.01,WeatherDisplay:10.37,2013-01-22 18:38:00,
2013-01-22 13:43:00,20.2,1.2,29.61,NNW,339,5.9,13.8,43,0.00,CLR,,0.01,WeatherDisplay:10.37,2013-01-22 18:43:00,
2013-01-22 13:48:00,20.2,2.2,29.62,NW,311,5.1,10.4,45,0.00,CLR,,0.01,WeatherDisplay:10.37,2013-01-22 18:48:00,
2013-01-22 13:53:00,20.5,1.5,29.61,North,349,1.8,2.3,43,0.00,CLR,,0.01,WeatherDisplay:10.37,2013-01-22 18:53:00,
2013-01-22 13:58:00,20.8,2.8,29.62,WNW,288,4.2,11.5,45,0.00,CLR,,0.01,WeatherDisplay:10.37,2013-01-22 18:58:00,
2013-01-22 14:03:00,21.1,2.1,29.62,WNW,289,1.8,5.8,43,0.00,CLR,,0.01,WeatherDisplay:10.37,2013-01-22 19:03:00,
2013-01-22 14:08:00,21.1,2.1,29.62,NNW,346,6.1,12.7,43,0.00,CLR,,0.01,WeatherDisplay:10.37,2013-01-22 19:08:00,
2013-01-22 14:13:00,21.1,1.6,29.62,North,356,3.4,12.0,42,0.00,CLR,,0.01,WeatherDisplay:10.37,2013-01-22 19:13:00,
2013-01-22 14:18:00,21.1,2.1,29.63,NW,305,1.5,3.5,43,0.00,CLR,,0.01,WeatherDisplay:10.37,2013-01-22 19:18:00,
2013-01-22 14:23:00,21.1,1.6,29.63,WSW,258,3.5,10.4,42,0.00,CLR,,0.01,WeatherDisplay:10.37,2013-01-22 19:23:00,
2013-01-22 14:29:00,21.1,2.6,29.64,NNW,340,2.2,4.6,44,0.00,CLR,,0.01,WeatherDisplay:10.37,2013-01-22 19:29:00,
2013-01-22 14:34:00,20.8,1.8,29.64,West,271,7.1,16.1,43,0.00,CLR,,0.01,WeatherDisplay:10.37,2013-01-22 19:34:00,
2013-01-22 14:39:00,20.6,1.6,29.64,North,359,7.5,11.5,43,0.00,CLR,,0.01,WeatherDisplay:10.37,2013-01-22 19:39:00,
2013-01-22 14:44:00,20.6,1.6,29.64,NNW,330,9.7,19.6,43,0.00,CLR,,0.01,WeatherDisplay:10.37,2013-01-22 19:44:00,
2013-01-22 14:49:00,20.5,1.0,29.65,NNW,333,1.0,4.6,42,0.00,CLR,,0.01,WeatherDisplay:10.37,2013-01-22 19:49:00,
2013-01-22 14:54:00,20.2,1.2,29.65,SW,229,2.3,4.6,43,0.00,CLR,,0.01,WeatherDisplay:10.37,2013-01-22 19:54:00,
2013-01-22 14:59:00,19.9,1.5,29.65,NNW,332,2.4,6.0,44,0.00,CLR,,0.01,WeatherDisplay:10.37,2013-01-22 19:59:00,
2013-01-22 15:04:00,19.5,0.1,29.66,WNW,287,2.9,10.4,42,0.00,CLR,,0.01,WeatherDisplay:10.37,2013-01-22 20:04:00,
2013-01-22 15:09:00,19.4,0.0,29.66,NW,305,2.5,8.1,42,0.00,CLR,,0.01,WeatherDisplay:10.37,2013-01-22 20:09:00,
2013-01-22 15:14:00,19.4,0.0,29.66,NW,313,2.8,6.9,42,0.00,CLR,,0.01,WeatherDisplay:10.37,2013-01-22 20:14:00,
2013-01-22 15:19:00,19.4,0.0,29.66,West,280,2.7,11.5,42,0.00,CLR,,0.01,WeatherDisplay:10.37,2013-01-22 20:19:00,
2013-01-22 15:24:00,19.2,0.3,29.66,NNW,328,4.4,10.4,43,0.00,CLR,,0.01,WeatherDisplay:10.37,2013-01-22 20:24:00,
2013-01-22 15:29:00,19.1,0.2,29.66,North,0,3.7,8.1,43,0.00,CLR,,0.01,WeatherDisplay:10.37,2013-01-22 20:29:00,
2013-01-22 15:34:00,18.8,0.0,29.67,West,281,5.2,11.5,43,0.00,CLR,,0.01,WeatherDisplay:10.37,2013-01-22 20:34:00,
2013-01-22 15:39:00,18.6,-0.2,29.67,NW,322,2.6,6.9,43,0.00,CLR,,0.01,WeatherDisplay:10.37,2013-01-22 20:39:00,
2013-01-22 15:44:00,18.4,-0.4,29.67,WSW,239,4.4,8.1,43,0.00,CLR,,0.01,WeatherDisplay:10.37,2013-01-22 20:44:00,
2013-01-22 15:49:00,18.4,-0.4,29.67,North,352,2.0,5.8,43,0.00,CLR,,0.01,WeatherDisplay:10.37,2013-01-22 20:49:00,
2013-01-22 15:54:00,18.4,0.1,29.67,NNW,339,3.1,5.8,44,0.00,CLR,,0.01,WeatherDisplay:10.37,2013-01-22 20:54:00,
2013-01-22 15:59:00,18.4,0.1,29.67,WNW,295,1.7,5.8,44,0.00,CLR,,0.01,WeatherDisplay:10.37,2013-01-22 20:59:00,
2013-01-22 16:04:00,18.4,-0.4,29.68,North,353,7.4,12.7,43,0.00,CLR,,0.01,WeatherDisplay:10.37,2013-01-22 21:04:00,
2013-01-22 16:09:00,18.4,-0.4,29.68,NNW,335,1.8,3.5,43,0.00,CLR,,0.01,WeatherDisplay:10.37,2013-01-22 21:09:00,
2013-01-22 16:14:00,18.4,0.6,29.68,WNW,288,4.6,8.1,45,0.00,CLR,,0.01,WeatherDisplay:10.37,2013-01-22 21:14:00,
2013-01-22 16:19:00,18.4,1.5,29.69,NNW,333,1.3,6.0,47,0.00,CLR,,0.01,WeatherDisplay:10.37,2013-01-22 21:19:00,
2013-01-22 16:24:00,18.4,0.1,29.69,WNW,282,1.7,6.9,44,0.00,CLR,,0.01,WeatherDisplay:10.37,2013-01-22 21:24:00,
2013-01-22 16:29:00,18.3,-0.5,29.69,NNW,342,6.3,12.7,43,0.00,CLR,,0.01,WeatherDisplay:10.37,2013-01-22 21:29:00,
2013-01-22 16:34:00,18.1,-1.2,29.69,WNW,302,1.8,6.9,42,0.00,CLR,,0.01,WeatherDisplay:10.37,2013-01-22 21:34:00,
2013-01-22 16:35:00,18.0,-1.2,29.69,NW,310,1.0,12.0,42,0.00,CLR,,0.01,WeatherDisplay:10.37,2013-01-22 21:35:00,
2013-01-22 16:40:00,17.7,-1.0,29.69,NW,312,1.1,4.6,43,0.00,CLR,,0.01,WeatherDisplay:10.37,2013-01-22 21:40:00,
2013-01-22 16:45:00,17.3,-1.4,29.70,NW,308,3.0,12.0,43,0.00,CLR,,0.01,WeatherDisplay:10.37,2013-01-22 21:45:00,
2013-01-22 16:50:00,17.0,-1.2,29.70,NW,309,1.0,8.0,44,0.00,CLR,,0.01,WeatherDisplay:10.37,2013-01-22 21:50:00,
2013-01-22 16:55:00,16.7,-1.0,29.70,WNW,296,3.0,12.0,45,0.00,CLR,,0.01,WeatherDisplay:10.37,2013-01-22 21:55:00,
2013-01-22 17:00:00,16.5,-1.2,29.71,WSW,254,2.5,5.0,45,0.00,CLR,,0.01,WeatherDisplay:10.37,2013-01-22 22:00:00,
2013-01-22 17:05:00,16.4,-1.3,29.71,NW,308,2.8,8.1,45,0.00,CLR,,0.01,WeatherDisplay:10.37,2013-01-22 22:05:00,
2013-01-22 17:10:00,16.2,-1.0,29.71,WNW,282,1.6,3.5,46,0.00,CLR,,0.01,WeatherDisplay:10.37,2013-01-22 22:10:00,
2013-01-22 17:15:00,16.1,-0.6,29.72,SW,227,2.7,8.1,47,0.00,CLR,,0.01,WeatherDisplay:10.37,2013-01-22 22:15:00,
2013-01-22 17:20:00,15.7,-1.0,29.72,WNW,296,1.5,6.9,47,0.00,CLR,,0.01,WeatherDisplay:10.37,2013-01-22 22:20:00,
2013-01-22 17:25:00,15.6,-1.5,29.72,North,359,0.4,2.3,46,0.00,CLR,,0.01,WeatherDisplay:10.37,2013-01-22 22:25:00,
2013-01-22 17:30:00,15.4,-1.3,29.73,West,264,2.1,5.8,47,0.00,CLR,,0.01,WeatherDisplay:10.37,2013-01-22 22:30:00,
2013-01-22 17:35:00,15.2,-0.6,29.73,NW,311,0.4,3.5,49,0.00,CLR,,0.01,WeatherDisplay:10.37,2013-01-22 22:35:00,
2013-01-22 17:40:00,14.9,-0.8,29.73,West,271,0.7,2.3,49,0.00,CLR,,0.01,WeatherDisplay:10.37,2013-01-22 22:40:00,
2013-01-22 17:45:00,14.8,-0.5,29.73,West,268,0.0,0.0,50,0.00,CLR,,0.01,WeatherDisplay:10.37,2013-01-22 22:45:00,
2013-01-22 17:50:00,14.6,-0.7,29.74,NE,34,0.0,0.0,50,0.00,CLR,,0.01,WeatherDisplay:10.37,2013-01-22 22:50:00,
2013-01-22 17:55:00,14.4,-0.9,29.74,NNW,344,0.0,0.0,50,0.00,CLR,,0.01,WeatherDisplay:10.37,2013-01-22 22:55:00,
2013-01-22 18:00:00,14.4,-1.3,29.74,West,264,0.3,2.3,49,0.00,CLR,,0.01,WeatherDisplay:10.37,2013-01-22 23:00:00,
2013-01-22 18:05:00,14.3,-1.4,29.74,NW,326,0.0,0.0,49,0.00,CLR,,0.01,WeatherDisplay:10.37,2013-01-22 23:05:00,
2013-01-22 18:10:00,14.3,-1.0,29.74,WSW,250,0.0,2.3,50,0.00,CLR,,0.01,WeatherDisplay:10.37,2013-01-22 23:10:00,
2013-01-22 18:15:00,14.3,-1.4,29.74,West,271,1.8,5.8,49,0.00,CLR,,0.01,WeatherDisplay:10.37,2013-01-22 23:15:00,
2013-01-22 18:20:00,14.3,-1.0,29.75,WNW,299,0.1,2.3,50,0.00,CLR,,0.01,WeatherDisplay:10.37,2013-01-22 23:20:00,
2013-01-22 18:25:00,14.1,-0.7,29.75,WNW,299,0.3,4.6,51,0.00,CLR,,0.01,WeatherDisplay:10.37,2013-01-22 23:25:00,
2013-01-22 18:30:00,14.0,-1.3,29.75,SW,226,0.0,0.0,50,0.00,CLR,,0.01,WeatherDisplay:10.37,2013-01-22 23:30:00,
2013-01-22 18:35:00,13.8,-1.4,29.75,WNW,285,2.5,6.9,50,0.00,CLR,,0.01,WeatherDisplay:10.37,2013-01-22 23:35:00,
2013-01-22 18:40:00,13.8,-1.4,29.76,WNW,289,0.0,3.5,50,0.00,CLR,,0.01,WeatherDisplay:10.37,2013-01-22 23:40:00,
2013-01-22 18:45:00,13.6,-2.1,29.76,WNW,294,0.3,2.3,49,0.00,CLR,,0.01,WeatherDisplay:10.37,2013-01-22 23:45:00,
2013-01-22 18:50:00,13.6,-2.1,29.76,WNW,302,0.8,4.6,49,0.00,CLR,,0.01,WeatherDisplay:10.37,2013-01-22 23:50:00,
2013-01-22 18:55:00,13.6,-1.6,29.77,NW,304,0.6,3.5,50,0.00,CLR,,0.01,WeatherDisplay:10.37,2013-01-22 23:55:00,
2013-01-22 19:00:00,13.5,-1.7,29.77,WNW,287,0.5,3.5,50,0.00,CLR,,0.01,WeatherDisplay:10.37,2013-01-23 00:00:00,
2013-01-22 19:05:00,13.5,-1.7,29.77,North,356,1.6,4.6,50,0.00,CLR,,0.01,WeatherDisplay:10.37,2013-01-23 00:05:00,
2013-01-22 19:10:00,13.5,-2.1,29.77,NW,315,1.7,4.6,49,0.00,CLR,,0.01,WeatherDisplay:10.37,2013-01-23 00:10:00,
2013-01-22 19:15:00,13.5,-2.1,29.77,WSW,248,0.2,2.3,49,0.00,CLR,,0.01,WeatherDisplay:10.37,2013-01-23 00:15:00,
2013-01-22 19:20:00,13.5,-2.6,29.77,WNW,284,0.4,2.3,48,0.00,CLR,,0.01,WeatherDisplay:10.37,2013-01-23 00:20:00,
2013-01-22 19:25:00,13.5,-2.6,29.77,NNW,329,0.3,2.3,48,0.00,CLR,,0.01,WeatherDisplay:10.37,2013-01-23 00:25:00,
2013-01-22 19:30:00,13.5,-2.6,29.77,West,260,0.5,2.3,48,0.00,CLR,,0.01,WeatherDisplay:10.37,2013-01-23 00:30:00,
2013-01-22 19:35:00,13.3,-2.8,29.77,NNW,333,0.4,4.6,48,0.00,CLR,,0.01,WeatherDisplay:10.37,2013-01-23 00:35:00,
2013-01-22 19:40:00,13.3,-2.8,29.78,North,356,0.0,0.0,48,0.00,CLR,,0.01,WeatherDisplay:10.37,2013-01-23 00:40:00,
2013-01-22 19:45:00,13.1,-2.9,29.78,NNW,340,0.2,2.3,48,0.00,CLR,,0.01,WeatherDisplay:10.37,2013-01-23 00:45:00,
2013-01-22 19:50:00,12.9,-2.7,29.78,North,0,0.5,4.6,49,0.00,CLR,,0.01,WeatherDisplay:10.37,2013-01-23 00:50:00,
2013-01-22 19:55:00,12.9,-2.7,29.78,WNW,292,0.0,3.5,49,0.00,CLR,,0.01,WeatherDisplay:10.37,2013-01-23 00:55:00,
2013-01-22 20:00:00,12.8,-2.8,29.78,WNW,287,0.7,4.6,49,0.00,CLR,,0.01,WeatherDisplay:10.37,2013-01-23 01:00:00,
2013-01-22 20:05:00,12.6,-2.6,29.79,West,275,0.0,0.0,50,0.00,CLR,,0.01,WeatherDisplay:10.37,2013-01-23 01:05:00,
2013-01-22 20:10:00,12.4,-2.3,29.79,North,359,0.0,0.0,51,0.00,CLR,,0.01,WeatherDisplay:10.37,2013-01-23 01:10:00,
2013-01-22 20:15:00,12.4,-2.7,29.79,NW,304,0.0,0.0,50,0.00,CLR,,0.01,WeatherDisplay:10.37,2013-01-23 01:15:00,
2013-01-22 20:20:00,12.3,-2.4,29.79,North,356,0.0,0.0,51,0.00,CLR,,0.01,WeatherDisplay:10.37,2013-01-23 01:20:00,
2013-01-22 20:25:00,12.1,-2.6,29.79,NNW,344,0.4,2.3,51,0.00,CLR,,0.01,WeatherDisplay:10.37,2013-01-23 01:25:00,
2013-01-22 20:30:00,12.1,-2.2,29.79,NNW,347,0.0,0.0,52,0.00,CLR,,0.01,WeatherDisplay:10.37,2013-01-23 01:30:00,
2013-01-22 20:35:00,11.9,-2.4,29.79,NNW,346,0.0,0.0,52,0.00,CLR,,0.01,WeatherDisplay:10.37,2013-01-23 01:35:00,
2013-01-22 20:40:00,11.9,-2.0,29.79,NNW,343,0.0,0.0,53,0.00,CLR,,0.01,WeatherDisplay:10.37,2013-01-23 01:40:00,
2013-01-22 20:45:00,11.7,-2.2,29.79,NNW,343,0.0,0.0,53,0.00,CLR,,0.01,WeatherDisplay:10.37,2013-01-23 01:45:00,
2013-01-22 20:50:00,11.6,-2.3,29.79,NNW,343,0.2,2.3,53,0.00,CLR,,0.01,WeatherDisplay:10.37,2013-01-23 01:50:00,
2013-01-22 20:55:00,11.6,-2.3,29.79,NNW,343,0.0,0.0,53,0.00,CLR,,0.01,WeatherDisplay:10.37,2013-01-23 01:55:00,
2013-01-22 21:00:00,11.4,-2.0,29.79,NNW,343,0.0,0.0,54,0.00,CLR,,0.01,WeatherDisplay:10.37,2013-01-23 02:00:00,
2013-01-22 21:05:00,11.2,-2.6,29.79,NNW,343,0.0,0.0,53,0.00,CLR,,0.01,WeatherDisplay:10.37,2013-01-23 02:05:00,
2013-01-22 21:10:00,11.2,-2.6,29.79,NNW,343,0.0,0.0,53,0.00,CLR,,0.01,WeatherDisplay:10.37,2013-01-23 02:10:00,
2013-01-22 21:15:00,11.1,-2.3,29.80,NNW,343,0.0,0.0,54,0.00,CLR,,0.01,WeatherDisplay:10.37,2013-01-23 02:15:00,
2013-01-22 21:20:00,10.9,-2.5,29.80,NNW,343,0.0,0.0,54,0.00,CLR,,0.01,WeatherDisplay:10.37,2013-01-23 02:20:00,
2013-01-22 21:25:00,10.9,-2.5,29.80,NNW,343,0.0,0.0,54,0.00,CLR,,0.01,WeatherDisplay:10.37,2013-01-23 02:25:00,
2013-01-22 21:30:00,10.7,-2.3,29.80,NNW,343,0.0,0.0,55,0.00,CLR,,0.01,WeatherDisplay:10.37,2013-01-23 02:30:00,
2013-01-22 21:35:00,10.7,-2.3,29.80,NNW,343,0.0,0.0,55,0.00,CLR,,0.01,WeatherDisplay:10.37,2013-01-23 02:35:00,
2013-01-22 21:40:00,10.5,-2.5,29.80,NNW,342,0.0,0.0,55,0.00,CLR,,0.01,WeatherDisplay:10.37,2013-01-23 02:40:00,
2013-01-22 21:45:00,10.4,-2.2,29.80,NNW,342,0.0,0.0,56,0.00,CLR,,0.01,WeatherDisplay:10.37,2013-01-23 02:45:00,
2013-01-22 21:50:00,10.4,-2.2,29.80,NNW,342,0.0,0.0,56,0.00,CLR,,0.01,WeatherDisplay:10.37,2013-01-23 02:50:00,
2013-01-22 21:55:00,10.2,-1.7,29.80,NNW,342,0.0,0.0,58,0.00,CLR,,0.01,WeatherDisplay:10.37,2013-01-23 02:55:00,
2013-01-22 22:00:00,10.2,-1.7,29.81,NNW,342,0.0,0.0,58,0.00,CLR,,0.01,WeatherDisplay:10.37,2013-01-23 03:00:00,
2013-01-22 22:05:00,10.0,-1.5,29.81,NNW,342,0.0,0.0,59,0.00,CLR,,0.01,WeatherDisplay:10.37,2013-01-23 03:05:00,
2013-01-22 22:10:00,10.0,-1.5,29.81,NNW,342,0.0,0.0,59,0.00,CLR,,0.01,WeatherDisplay:10.37,2013-01-23 03:10:00,
2013-01-22 22:15:00,9.9,-1.2,29.81,NNW,342,0.0,0.0,60,0.00,CLR,,0.01,WeatherDisplay:10.37,2013-01-23 03:15:00,
2013-01-22 22:20:00,9.9,-1.2,29.81,NNW,342,0.0,0.0,60,0.00,CLR,,0.01,WeatherDisplay:10.37,2013-01-23 03:20:00,
2013-01-22 22:25:00,9.7,-1.1,29.81,NNW,342,0.0,0.0,61,0.00,CLR,,0.01,WeatherDisplay:10.37,2013-01-23 03:25:00,
2013-01-22 22:30:00,9.7,-1.1,29.82,NNW,342,0.0,0.0,61,0.00,CLR,,0.01,WeatherDisplay:10.37,2013-01-23 03:30:00,
2013-01-22 22:35:00,9.7,-1.1,29.82,NNW,342,0.0,0.0,61,0.00,CLR,,0.01,WeatherDisplay:10.37,2013-01-23 03:35:00,
2013-01-22 22:40:00,9.5,-1.3,29.82,NNW,342,0.0,0.0,61,0.00,CLR,,0.01,WeatherDisplay:10.37,2013-01-23 03:40:00,
2013-01-22 22:45:00,9.3,-1.1,29.82,NNW,342,0.0,0.0,62,0.00,CLR,,0.01,WeatherDisplay:10.37,2013-01-23 03:45:00,
2013-01-22 22:50:00,9.2,-1.2,29.82,NNW,342,0.0,0.0,62,0.00,CLR,,0.01,WeatherDisplay:10.37,2013-01-23 03:50:00,
2013-01-22 22:55:00,9.2,-0.9,29.82,NNW,342,0.0,0.0,63,0.00,CLR,,0.01,WeatherDisplay:10.37,2013-01-23 03:55:00,
2013-01-22 23:00:00,9.0,-1.1,29.82,NNW,343,0.0,0.0,63,0.00,CLR,,0.01,WeatherDisplay:10.37,2013-01-23 04:00:00,
2013-01-22 23:05:00,8.8,-1.2,29.82,NNW,343,0.4,0.0,63,0.00,CLR,,0.01,WeatherDisplay:10.37,2013-01-23 04:05:00,
2013-01-22 23:10:00,8.6,-1.4,29.82,NNW,329,1.6,5.8,63,0.00,CLR,,0.01,WeatherDisplay:10.37,2013-01-23 04:10:00,
2013-01-22 23:15:00,8.6,-1.8,29.82,NNW,329,1.9,4.6,62,0.00,CLR,,0.01,WeatherDisplay:10.37,2013-01-23 04:15:00,
2013-01-22 23:20:00,8.6,-2.1,29.82,West,264,0.0,1.1,61,0.00,CLR,,0.01,WeatherDisplay:10.37,2013-01-23 04:20:00,
2013-01-22 23:25:00,8.6,-2.8,29.82,North,350,0.0,0.0,59,0.00,CLR,,0.01,WeatherDisplay:10.37,2013-01-23 04:25:00,
2013-01-22 23:30:00,8.6,-2.8,29.82,NNW,339,0.1,2.3,59,0.00,CLR,,0.01,WeatherDisplay:10.37,2013-01-23 04:30:00,
2013-01-22 23:35:00,8.6,-3.2,29.82,West,270,0.7,2.3,58,0.00,CLR,,0.01,WeatherDisplay:10.37,2013-01-23 04:35:00,
2013-01-22 23:40:00,8.4,-3.4,29.82,NW,304,0.0,0.0,58,0.00,CLR,,0.01,WeatherDisplay:10.37,2013-01-23 04:40:00,
2013-01-22 23:45:00,8.4,-3.7,29.82,NW,319,0.0,0.0,57,0.00,CLR,,0.01,WeatherDisplay:10.37,2013-01-23 04:45:00,
2013-01-22 23:50:00,8.3,-3.8,29.82,NNW,339,0.0,0.0,57,0.00,CLR,,0.01,WeatherDisplay:10.37,2013-01-23 04:50:00,
2013-01-22 23:55:00,8.3,-3.8,29.82,NNW,339,0.0,0.0,57,0.00,CLR,,0.01,WeatherDisplay:10.37,2013-01-23 04:55:00,